Time;durP1;ratioP1;P1;durP2;ratioP2;P2;SDS_P1;SDS_P2;PMS_P1;PMS_P2;Temp;Humidity;BMP_temperature;BMP_pressure;BME280_temperature;BME280_humidity;BME280_pressure;Samples;Min_cycle;Max_cycle;Signal;HPM_P1;HPM_P2
2023/03/26 00:01:16;;;;;;;13.93;2.03;;;;;;;-145.50;100.00;65435.88;4900068;29;19927;-68
2023/03/26 00:03:52;;;;;;;15.00;2.92;;;;;;;-145.50;100.00;65435.88;4903047;29;20052;-69
2023/03/26 00:06:22;;;;;;;16.52;3.03;;;;;;;-145.50;100.00;65435.88;4907866;29;20056;-68
2023/03/26 00:08:49;;;;;;;15.85;2.60;;;;;;;-145.50;100.00;65435.88;4900254;29;20421;-68
2023/03/26 00:11:17;;;;;;;21.85;3.60;;;;;;;-145.50;100.00;65435.88;4908025;29;20044;-70
2023/03/26 00:13:45;;;;;;;18.50;2.95;;;;;;;-145.50;100.00;65435.88;4900727;29;20218;-68
2023/03/26 00:16:15;;;;;;;20.25;3.50;;;;;;;-145.50;100.00;65435.88;4901526;29;20071;-68
2023/03/26 00:18:43;;;;;;;16.98;2.70;;;;;;;-145.50;100.00;65435.88;4900038;29;20135;-68
2023/03/26 00:21:13;;;;;;;16.38;2.67;;;;;;;-145.50;100.00;65435.88;4907574;29;20111;-68
2023/03/26 00:23:41;;;;;;;19.10;3.45;;;;;;;-145.50;100.00;65435.88;4907437;29;20052;-70
2023/03/26 00:26:09;;;;;;;22.13;4.47;;;;;;;-145.50;100.00;65435.88;4901607;29;20066;-69
2023/03/26 00:28:39;;;;;;;21.30;3.72;;;;;;;-145.50;100.00;65435.88;4904799;29;20059;-67
2023/03/26 00:31:07;;;;;;;19.65;3.60;;;;;;;-145.50;100.00;65435.88;4897238;29;20056;-68
2023/03/26 00:33:37;;;;;;;;;;;;;;;-145.50;100.00;65435.88;4905824;29;20062;-69
2023/03/26 00:36:08;;;;;;;17.77;3.55;;;;;;;-145.50;100.00;65435.88;4903124;29;19958;-68
2023/03/26 00:38:37;;;;;;;33.05;4.15;;;;;;;-145.50;100.00;65435.88;4905399;29;20055;-68
2023/03/26 00:41:21;;;;;;;19.48;4.35;;;;;;;-145.50;100.00;65435.88;4908082;29;20078;-68
2023/03/26 00:43:52;;;;;;;21.25;4.57;;;;;;;-145.50;100.00;65435.88;4901525;29;20572;-68
2023/03/26 00:46:18;;;;;;;24.75;3.47;;;;;;;-145.50;100.00;65435.88;4904563;29;20055;-68
2023/03/26 00:48:45;;;;;;;22.92;3.83;;;;;;;-145.50;100.00;65435.88;4904425;29;20533;-68
2023/03/26 00:51:14;;;;;;;25.63;4.30;;;;;;;-145.50;100.00;65435.88;4909158;29;20071;-68
2023/03/26 00:53:43;;;;;;;18.30;3.63;;;;;;;-145.50;100.00;65435.88;4905706;29;20052;-67
2023/03/26 00:56:10;;;;;;;21.75;3.47;;;;;;;-145.50;100.00;65435.88;4910513;29;20205;-69
2023/03/26 00:58:37;;;;;;;29.70;4.18;;;;;;;-145.50;100.00;65435.88;4901513;29;20051;-67
2023/03/26 01:01:12;;;;;;;28.65;4.20;;;;;;;-145.50;100.00;65435.88;4903962;29;20049;-69
2023/03/26 01:03:40;;;;;;;25.65;4.60;;;;;;;-145.50;100.00;65435.88;4907943;29;20052;-67
2023/03/26 01:06:18;;;;;;;23.48;4.43;;;;;;;-145.50;100.00;65435.88;4905704;29;20731;-68
2023/03/26 01:08:48;;;;;;;26.23;5.32;;;;;;;-145.50;100.00;65435.88;4910911;29;20060;-69
2023/03/26 01:11:18;;;;;;;29.42;5.03;;;;;;;-145.50;100.00;65435.88;4901992;29;20052;-68
2023/03/26 01:13:59;;;;;;;23.95;4.82;;;;;;;-145.50;100.00;65435.88;4905720;29;20543;-68
2023/03/26 01:16:32;;;;;;;33.03;6.10;;;;;;;-145.50;100.00;65435.88;4905740;29;20056;-69
2023/03/26 01:18:59;;;;;;;26.23;5.07;;;;;;;-145.50;100.00;65435.88;4914185;29;20087;-70
2023/03/26 01:21:29;;;;;;;27.05;4.13;;;;;;;-145.50;100.00;65435.88;4908177;29;20139;-69
2023/03/26 01:24:04;;;;;;;31.10;5.60;;;;;;;-145.50;100.00;65435.88;4911013;29;20052;-69
2023/03/26 01:27:12;;;;;;;30.10;5.20;;;;;;;-145.50;100.00;65435.88;4898357;29;20589;-68
2023/03/26 01:29:47;;;;;;;25.08;5.18;;;;;;;-145.50;100.00;65435.88;4909185;29;20056;-68
2023/03/26 01:32:24;;;;;;;29.27;5.47;;;;;;;-145.50;100.00;65435.88;4913651;29;20043;-70
2023/03/26 01:34:56;;;;;;;27.58;4.95;;;;;;;-145.50;100.00;65435.88;4903400;29;20052;-69
2023/03/26 01:37:33;;;;;;;31.55;4.63;;;;;;;-145.50;100.00;65435.88;4907592;29;20075;-69
2023/03/26 01:40:07;;;;;;;19.03;4.53;;;;;;;-145.50;100.00;65435.88;4899687;29;20508;-69
2023/03/26 01:42:44;;;;;;;36.50;6.40;;;;;;;-145.50;100.00;65435.88;4906177;29;20052;-69
2023/03/26 01:45:22;;;;;;;38.25;6.25;;;;;;;-145.50;100.00;65435.88;4901211;29;20052;-69
2023/03/26 01:47:49;;;;;;;28.00;5.30;;;;;;;-145.50;100.00;65435.88;4909181;29;20145;-69
2023/03/26 01:50:16;;;;;;;30.70;5.53;;;;;;;-145.50;100.00;65435.88;4910646;29;20521;-70
2023/03/26 01:52:42;;;;;;;29.70;4.60;;;;;;;-145.50;100.00;65435.88;4904161;29;20059;-70
2023/03/26 01:55:13;;;;;;;25.40;5.15;;;;;;;-145.50;100.00;65435.88;4902562;29;20722;-70
2023/03/26 01:58:01;;;;;;;30.20;5.90;;;;;;;-145.50;100.00;65435.88;4908238;29;20134;-70
2023/03/26 02:00:36;;;;;;;35.58;5.95;;;;;;;-145.50;100.00;65435.88;4909729;29;20070;-69
2023/03/26 02:03:33;;;;;;;25.25;5.00;;;;;;;-145.50;100.00;65435.88;4903861;29;20048;-69
2023/03/26 02:06:18;;;;;;;33.13;5.87;;;;;;;-145.50;100.00;65435.88;4902000;29;20056;-70
2023/03/26 02:08:57;;;;;;;39.80;6.22;;;;;;;-145.50;100.00;65435.88;4896566;29;20087;-69
2023/03/26 02:11:23;;;;;;;37.55;6.07;;;;;;;-145.50;100.00;65435.88;4907347;29;20051;-69
2023/03/26 02:14:02;;;;;;;39.67;6.90;;;;;;;-145.50;100.00;65435.88;4902583;29;20052;-68
2023/03/26 02:16:28;;;;;;;24.42;5.68;;;;;;;-145.50;100.00;65435.88;4901983;29;20549;-68
2023/03/26 02:18:55;;;;;;;28.90;6.28;;;;;;;-145.50;100.00;65435.88;4909783;29;20095;-68
2023/03/26 02:21:24;;;;;;;27.77;5.40;;;;;;;-145.50;100.00;65435.88;4898545;29;20532;-69
2023/03/26 02:24:01;;;;;;;27.77;6.22;;;;;;;-145.50;100.00;65435.88;4904835;29;20494;-68
2023/03/26 02:26:33;;;;;;;31.00;5.93;;;;;;;-145.50;100.00;65435.88;4902881;29;20060;-68
2023/03/26 02:29:00;;;;;;;30.30;6.43;;;;;;;-145.50;100.00;65435.88;4909201;29;20048;-68
2023/03/26 02:31:27;;;;;;;30.80;6.78;;;;;;;-145.50;100.00;65435.88;4902318;29;20052;-65
2023/03/26 02:33:54;;;;;;;40.20;7.40;;;;;;;-145.50;100.00;65435.88;4908459;29;20048;-66
2023/03/26 02:36:25;;;;;;;36.38;6.75;;;;;;;-145.50;100.00;65435.88;4908711;29;20052;-65
2023/03/26 02:38:54;;;;;;;31.92;6.35;;;;;;;-145.50;100.00;65435.88;4898409;29;20117;-66
2023/03/26 02:41:21;;;;;;;31.63;6.22;;;;;;;-145.50;100.00;65435.88;4908936;29;20457;-68
2023/03/26 02:43:48;;;;;;;41.20;6.35;;;;;;;-145.50;100.00;65435.88;4895243;29;20310;-68
2023/03/26 02:46:14;;;;;;;35.72;6.72;;;;;;;-145.50;100.00;65435.88;4907692;29;20101;-69
2023/03/26 02:48:42;;;;;;;41.00;6.95;;;;;;;-145.50;100.00;65435.88;4902667;29;20052;-68
2023/03/26 02:51:09;;;;;;;31.45;5.80;;;;;;;-145.50;100.00;65435.88;4909080;29;20066;-69
2023/03/26 02:53:36;;;;;;;30.25;6.43;;;;;;;-145.50;100.00;65435.88;4908068;29;20056;-69
2023/03/26 02:56:03;;;;;;;32.45;6.22;;;;;;;-145.50;100.00;65435.88;4897801;29;20056;-69
2023/03/26 02:58:29;;;;;;;28.05;5.25;;;;;;;-145.50;100.00;65435.88;4900989;29;20524;-69
2023/03/26 03:00:56;;;;;;;34.53;6.38;;;;;;;-145.50;100.00;65435.88;4902268;29;20075;-68
2023/03/26 03:03:24;;;;;;;39.10;7.05;;;;;;;-145.50;100.00;65435.88;4908178;29;20104;-68
2023/03/26 03:05:51;;;;;;;28.03;5.77;;;;;;;-145.50;100.00;65435.88;4903092;29;20054;-68
2023/03/26 03:08:20;;;;;;;33.63;6.47;;;;;;;-145.50;100.00;65435.88;4908131;29;20548;-68
2023/03/26 03:11:01;;;;;;;24.65;5.80;;;;;;;-145.50;100.00;65435.88;4917312;29;20050;-69
2023/03/26 03:13:28;;;;;;;43.65;7.88;;;;;;;-145.50;100.00;65435.88;4902632;29;20052;-69
2023/03/26 03:15:55;;;;;;;28.35;6.82;;;;;;;-145.50;100.00;65435.88;4908022;29;20078;-69
2023/03/26 03:18:22;;;;;;;31.45;7.10;;;;;;;-145.50;100.00;65435.88;4902598;29;20608;-68
2023/03/26 03:20:49;;;;;;;34.15;6.97;;;;;;;-145.50;100.00;65435.88;4908517;29;20159;-68
2023/03/26 03:23:16;;;;;;;37.15;8.18;;;;;;;-145.50;100.00;65435.88;4902293;29;20440;-68
2023/03/26 03:25:42;;;;;;;28.70;6.55;;;;;;;-145.50;100.00;65435.88;4901524;29;20052;-68
2023/03/26 03:28:10;;;;;;;34.08;6.97;;;;;;;-145.50;100.00;65435.88;4900294;29;20060;-68
2023/03/26 03:30:36;;;;;;;30.70;8.25;;;;;;;-145.50;100.00;65435.88;4906498;29;20056;-67
2023/03/26 03:33:04;;;;;;;29.58;7.25;;;;;;;-145.50;100.00;65435.88;4908549;29;20131;-69
2023/03/26 03:35:32;;;;;;;27.85;7.07;;;;;;;-145.50;100.00;65435.88;4902501;29;20078;-68
2023/03/26 03:37:59;;;;;;;28.57;7.23;;;;;;;-145.50;100.00;65435.88;4901116;29;20182;-68
2023/03/26 03:40:25;;;;;;;38.22;7.20;;;;;;;-145.50;100.00;65435.88;4898400;29;20053;-68
2023/03/26 03:42:52;;;;;;;34.42;7.22;;;;;;;-145.50;100.00;65435.88;4908984;29;20561;-68
2023/03/26 03:45:18;;;;;;;30.70;6.45;;;;;;;-145.50;100.00;65435.88;4901710;29;20764;-69
2023/03/26 03:47:45;;;;;;;31.35;7.55;;;;;;;-145.50;100.00;65435.88;4907183;29;20054;-68
2023/03/26 03:50:11;;;;;;;24.40;6.35;;;;;;;-145.50;100.00;65435.88;4902106;29;20060;-69
2023/03/26 03:52:38;;;;;;;28.73;5.82;;;;;;;-145.50;100.00;65435.88;4897444;29;20056;-67
2023/03/26 03:55:04;;;;;;;28.02;5.57;;;;;;;-145.50;100.00;65435.88;4906993;29;20052;-69
2023/03/26 03:57:32;;;;;;;24.17;5.90;;;;;;;-145.50;100.00;65435.88;4902014;29;20051;-68
2023/03/26 03:59:59;;;;;;;28.30;5.63;;;;;;;-145.50;100.00;65435.88;4906913;29;20063;-69
2023/03/26 04:02:29;;;;;;;29.50;5.93;;;;;;;-145.50;100.00;65435.88;4905825;29;20143;-68
2023/03/26 04:04:58;;;;;;;25.58;4.95;;;;;;;-145.50;100.00;65435.88;4905683;29;20044;-68
2023/03/26 04:07:26;;;;;;;30.80;5.85;;;;;;;-145.50;100.00;65435.88;4901869;29;20063;-68
2023/03/26 04:09:53;;;;;;;23.02;4.90;;;;;;;-145.50;100.00;65435.88;4901789;29;20056;-68
2023/03/26 04:12:19;;;;;;;38.83;5.22;;;;;;;-145.50;100.00;65435.88;4907959;29;20135;-68
2023/03/26 04:14:47;;;;;;;31.58;5.07;;;;;;;-145.50;100.00;65435.88;4902019;29;20864;-68
2023/03/26 04:17:14;;;;;;;29.95;5.45;;;;;;;-145.50;100.00;65435.88;4908263;29;20540;-69
2023/03/26 04:19:43;;;;;;;21.58;4.57;;;;;;;-145.50;100.00;65435.88;4899433;29;20067;-67
2023/03/26 04:22:10;;;;;;;26.85;4.80;;;;;;;-145.50;100.00;65435.88;4907795;29;20056;-68
2023/03/26 04:24:38;;;;;;;28.27;5.27;;;;;;;-145.50;100.00;65435.88;4911502;29;20152;-67
2023/03/26 04:27:08;;;;;;;23.05;4.88;;;;;;;-145.50;100.00;65435.88;4905776;29;20052;-69
2023/03/26 04:29:44;;;;;;;27.92;4.80;;;;;;;-145.50;100.00;65435.88;4912002;29;20052;-68
2023/03/26 04:32:23;;;;;;;23.85;4.00;;;;;;;-145.50;100.00;65435.88;4901854;29;20146;-68
2023/03/26 04:34:51;;;;;;;26.60;5.10;;;;;;;-145.50;100.00;65435.88;4912694;29;20063;-69
2023/03/26 04:37:27;;;;;;;25.52;4.30;;;;;;;-145.50;100.00;65435.88;4902801;29;20207;-68
2023/03/26 04:39:54;;;;;;;31.08;4.93;;;;;;;-145.50;100.00;65435.88;4911621;29;20048;-68
2023/03/26 04:42:20;;;;;;;18.67;4.47;;;;;;;-145.50;100.00;65435.88;4911570;29;20367;-68
2023/03/26 04:44:49;;;;;;;26.70;4.93;;;;;;;-145.50;100.00;65435.88;4903759;29;20048;-68
2023/03/26 04:47:17;;;;;;;25.73;5.28;;;;;;;-145.50;100.00;65435.88;4905946;29;20112;-68
2023/03/26 04:49:46;;;;;;;22.92;4.22;;;;;;;-145.50;100.00;65435.88;4897873;29;20048;-68
2023/03/26 04:52:13;;;;;;;23.27;5.25;;;;;;;-145.50;100.00;65435.88;4911293;29;20048;-69
2023/03/26 04:54:43;;;;;;;24.25;4.78;;;;;;;-145.50;100.00;65435.88;4903699;29;20080;-68
2023/03/26 04:57:21;;;;;;;28.08;4.68;;;;;;;-145.50;100.00;65435.88;4911544;29;20063;-69
2023/03/26 04:59:48;;;;;;;29.05;5.88;;;;;;;-145.50;100.00;65435.88;4906636;29;20270;-68
2023/03/26 05:02:17;;;;;;;20.65;4.28;;;;;;;-145.50;100.00;65435.88;4899562;29;20147;-68
2023/03/26 05:04:47;;;;;;;24.27;4.30;;;;;;;-145.50;100.00;65435.88;4910032;29;20056;-68
2023/03/26 05:07:19;;;;;;;24.17;5.35;;;;;;;-145.50;100.00;65435.88;4904982;29;20143;-68
2023/03/26 05:09:45;;;;;;;26.73;4.40;;;;;;;-145.50;100.00;65435.88;4924865;29;20159;-68
2023/03/26 05:12:12;;;;;;;22.05;4.28;;;;;;;-145.50;100.00;65435.88;4902712;29;20097;-68
2023/03/26 05:14:39;;;;;;;26.77;4.63;;;;;;;-145.50;100.00;65435.88;4905620;29;20104;-68
2023/03/26 05:17:09;;;;;;;22.20;3.97;;;;;;;-145.50;100.00;65435.88;4907546;29;20437;-69
2023/03/26 05:19:36;;;;;;;20.30;3.60;;;;;;;-145.50;100.00;65435.88;4904508;29;20048;-69
2023/03/26 05:22:03;;;;;;;21.75;4.30;;;;;;;-145.50;100.00;65435.88;4910709;29;20143;-69
2023/03/26 05:24:29;;;;;;;31.92;4.65;;;;;;;-145.50;100.00;65435.88;4913223;29;20066;-69
2023/03/26 05:26:56;;;;;;;19.98;3.60;;;;;;;-145.50;100.00;65435.88;4910640;29;20546;-69
2023/03/26 05:29:23;;;;;;;21.27;3.90;;;;;;;-145.50;100.00;65435.88;4899105;29;20052;-68
2023/03/26 05:31:49;;;;;;;24.52;5.50;;;;;;;-145.50;100.00;65435.88;4906298;29;20139;-69
2023/03/26 05:34:16;;;;;;;18.90;3.65;;;;;;;-145.50;100.00;65435.88;4909995;29;20494;-69
2023/03/26 05:36:43;;;;;;;21.15;4.32;;;;;;;-145.50;100.00;65435.88;4902763;29;20059;-68
2023/03/26 05:39:09;;;;;;;21.55;5.07;;;;;;;-145.50;100.00;65435.88;4904661;29;20142;-68
2023/03/26 05:41:36;;;;;;;24.08;5.65;;;;;;;-145.50;100.00;65435.88;4901912;29;20437;-69
2023/03/26 05:44:02;;;;;;;27.30;5.20;;;;;;;-145.50;100.00;65435.88;4904255;29;20071;-68
2023/03/26 05:46:29;;;;;;;24.40;4.55;;;;;;;-145.50;100.00;65435.88;4903871;29;20056;-69
2023/03/26 05:48:55;;;;;;;26.83;4.30;;;;;;;-145.50;100.00;65435.88;4909288;29;20530;-68
2023/03/26 05:51:22;;;;;;;21.52;4.20;;;;;;;-145.50;100.00;65435.88;4910332;29;20569;-68
2023/03/26 05:53:48;;;;;;;22.63;4.20;;;;;;;-145.50;100.00;65435.88;4901837;29;20055;-68
2023/03/26 05:56:15;;;;;;;18.50;3.58;;;;;;;-145.50;100.00;65435.88;4905920;29;20059;-69
2023/03/26 05:58:42;;;;;;;20.08;3.85;;;;;;;-145.50;100.00;65435.88;4899404;29;20056;-68
2023/03/26 06:01:15;;;;;;;22.77;3.78;;;;;;;-145.50;100.00;65435.88;4910093;29;20068;-69
2023/03/26 06:03:44;;;;;;;20.05;4.18;;;;;;;-145.50;100.00;65435.88;4903479;29;20052;-68
2023/03/26 06:06:15;;;;;;;;;;;;;;;-145.50;100.00;65435.88;4910176;29;20509;-68
2023/03/26 06:08:45;;;;;;;20.52;4.10;;;;;;;-145.50;100.00;65435.88;4911661;29;20393;-68
2023/03/26 06:11:12;;;;;;;21.73;4.00;;;;;;;-145.50;100.00;65435.88;4897151;29;20059;-69
2023/03/26 06:13:39;;;;;;;22.27;3.90;;;;;;;-145.50;100.00;65435.88;4906010;29;20052;-70
2023/03/26 06:16:06;;;;;;;17.50;3.78;;;;;;;-145.50;100.00;65435.88;4910257;29;20657;-69
2023/03/26 06:18:32;;;;;;;22.08;3.75;;;;;;;-145.50;100.00;65435.88;4910157;29;20055;-69
2023/03/26 06:20:59;;;;;;;21.20;3.70;;;;;;;-145.50;100.00;65435.88;4903693;29;20417;-69
2023/03/26 06:23:25;;;;;;;23.85;4.63;;;;;;;-145.50;100.00;65435.88;4906891;29;20209;-69
2023/03/26 06:25:52;;;;;;;21.15;3.70;;;;;;;-145.50;100.00;65435.88;4902160;29;20064;-69
2023/03/26 06:28:19;;;;;;;19.15;3.58;;;;;;;-145.50;100.00;65435.88;4902801;29;20140;-69
2023/03/26 06:30:45;;;;;;;24.75;4.05;;;;;;;-145.50;100.00;65435.88;4910322;29;20048;-69
2023/03/26 06:33:12;;;;;;;18.00;3.90;;;;;;;-145.50;100.00;65435.88;4902182;29;20063;-69
2023/03/26 06:35:38;;;;;;;28.40;5.15;;;;;;;-145.50;100.00;65435.88;4907131;29;20295;-68
2023/03/26 06:38:06;;;;;;;23.33;4.18;;;;;;;-145.50;100.00;65435.88;4898300;29;20054;-69
2023/03/26 06:40:33;;;;;;;23.40;5.07;;;;;;;-145.50;100.00;65435.88;4906336;29;20089;-69
2023/03/26 06:43:00;;;;;;;23.35;4.32;;;;;;;-145.50;100.00;65435.88;4908241;29;20204;-69
2023/03/26 06:45:37;;;;;;;21.77;4.55;;;;;;;-145.50;100.00;65435.88;4914597;29;20695;-69
2023/03/26 06:48:03;;;;;;;29.90;5.40;;;;;;;-145.50;100.00;65435.88;4909066;29;20056;-69
2023/03/26 06:50:31;;;;;;;21.58;5.22;;;;;;;-145.50;100.00;65435.88;4900681;29;20683;-68
2023/03/26 06:52:57;;;;;;;21.88;5.10;;;;;;;-145.50;100.00;65435.88;4902134;29;20048;-69
2023/03/26 06:55:25;;;;;;;21.98;4.68;;;;;;;-145.50;100.00;65435.88;4902929;29;20062;-69
2023/03/26 06:57:53;;;;;;;19.30;3.83;;;;;;;-145.50;100.00;65435.88;4908927;29;20055;-69
2023/03/26 07:00:20;;;;;;;23.20;4.15;;;;;;;-145.50;100.00;65435.88;4908673;29;20627;-69
2023/03/26 07:02:47;;;;;;;20.40;4.43;;;;;;;-145.50;100.00;65435.88;4902129;29;20182;-69
2023/03/26 07:05:14;;;;;;;18.80;4.28;;;;;;;-145.50;100.00;65435.88;4904021;29;20067;-69
2023/03/26 07:07:41;;;;;;;21.73;4.40;;;;;;;-145.50;100.00;65435.88;4898138;29;20060;-69
2023/03/26 07:10:13;;;;;;;17.17;3.85;;;;;;;-145.50;100.00;65435.88;4908299;29;20135;-69
2023/03/26 07:12:41;;;;;;;20.33;3.45;;;;;;;-145.50;100.00;65435.88;4902456;29;20566;-69
2023/03/26 07:15:09;;;;;;;22.17;4.22;;;;;;;-145.50;100.00;65435.88;4909282;29;20138;-69
2023/03/26 07:17:35;;;;;;;21.75;4.70;;;;;;;-145.50;100.00;65435.88;4909601;29;20127;-69
2023/03/26 07:20:03;;;;;;;21.75;4.40;;;;;;;-145.50;100.00;65435.88;4897015;29;20048;-70
2023/03/26 07:22:30;;;;;;;25.83;4.00;;;;;;;-145.50;100.00;65435.88;4904359;29;20052;-67
2023/03/26 07:24:57;;;;;;;19.08;4.82;;;;;;;-145.50;100.00;65435.88;4901513;29;20059;-70
2023/03/26 07:27:53;;;;;;;16.20;4.38;;;;;;;-145.50;100.00;65435.88;4908849;29;20052;-70
2023/03/26 07:30:33;;;;;;;19.75;3.75;;;;;;;-145.50;100.00;65435.88;4894136;29;20088;-70
2023/03/26 07:33:08;;;;;;;21.50;3.35;;;;;;;-145.50;100.00;65435.88;4904424;29;20056;-70
2023/03/26 07:35:40;;;;;;;20.98;3.80;;;;;;;-145.50;100.00;65435.88;4899137;29;20048;-70
2023/03/26 07:38:35;;;;;;;21.67;3.47;;;;;;;-145.50;100.00;65435.88;4920716;29;20138;-70
2023/03/26 07:41:25;;;;;;;23.67;4.40;;;;;;;-145.50;100.00;65435.88;4902673;29;20056;-70
2023/03/26 07:44:10;;;;;;;22.67;4.20;;;;;;;-145.50;100.00;65435.88;4902306;29;20060;-70
2023/03/26 07:46:38;;;;;;;22.45;4.80;;;;;;;-145.50;100.00;65435.88;4902948;29;20052;-71
2023/03/26 07:49:04;;;;;;;18.17;4.68;;;;;;;-145.50;100.00;65435.88;4899128;29;20052;-71
2023/03/26 07:51:31;;;;;;;25.10;3.72;;;;;;;-145.50;100.00;65435.88;4904911;29;20574;-70
2023/03/26 07:53:59;;;;;;;21.02;3.78;;;;;;;-145.50;100.00;65435.88;4899770;29;20327;-71
2023/03/26 07:56:35;;;;;;;29.48;4.75;;;;;;;-145.50;100.00;65435.88;4908802;29;20135;-70
2023/03/26 07:59:48;;;;;;;21.30;4.20;;;;;;;-145.50;100.00;65435.88;4901657;29;20640;-71
2023/03/26 08:02:32;;;;;;;22.90;4.32;;;;;;;-145.50;100.00;65435.88;4902606;29;20052;-71
2023/03/26 08:05:03;;;;;;;21.67;4.57;;;;;;;-145.50;100.00;65435.88;4900464;29;20052;-70
2023/03/26 08:07:52;;;;;;;16.00;3.67;;;;;;;-145.50;100.00;65435.88;4908451;29;20515;-71
2023/03/26 08:10:21;;;;;;;15.90;4.10;;;;;;;-145.50;100.00;65435.88;4898426;29;20573;-71
2023/03/26 08:13:05;;;;;;;22.73;4.38;;;;;;;-145.50;100.00;65435.88;4901775;29;20498;-70
2023/03/26 08:16:22;;;;;;;22.88;3.67;;;;;;;-145.50;100.00;65435.88;4904077;29;20056;-71
2023/03/26 08:19:24;;;;;;;25.98;4.93;;;;;;;-145.50;100.00;65435.88;4880354;29;20087;-71
2023/03/26 08:21:54;;;;;;;24.67;4.47;;;;;;;-145.50;100.00;65435.88;4900670;29;20052;-71
2023/03/26 08:24:48;;;;;;;18.40;4.75;;;;;;;-145.50;100.00;65435.88;4908471;29;20052;-75
2023/03/26 08:27:30;;;;;;;16.27;4.45;;;;;;;-145.50;100.00;65435.88;4902172;29;20063;-70
2023/03/26 08:30:17;;;;;;;19.77;4.57;;;;;;;-145.50;100.00;65435.88;4902886;29;20433;-71
2023/03/26 08:32:53;;;;;;;17.33;4.80;;;;;;;-145.50;100.00;65435.88;4899028;29;20052;-70
2023/03/26 08:35:19;;;;;;;21.20;4.13;;;;;;;-145.50;100.00;65435.88;4909087;29;20056;-70
2023/03/26 08:37:46;;;;;;;23.00;4.88;;;;;;;-145.50;100.00;65435.88;4905296;29;20052;-71
2023/03/26 08:40:18;;;;;;;23.13;5.30;;;;;;;-145.50;100.00;65435.88;4902553;29;20063;-71
2023/03/26 08:43:08;;;;;;;17.42;4.88;;;;;;;-145.50;100.00;65435.88;4901747;29;20090;-70
2023/03/26 08:45:57;;;;;;;17.15;6.28;;;;;;;-145.50;100.00;65435.88;4898400;29;20064;-70
2023/03/26 08:48:53;;;;;;;18.25;6.18;;;;;;;-145.50;100.00;65435.88;4900486;29;20417;-70
2023/03/26 08:51:38;;;;;;;20.92;5.07;;;;;;;-145.50;100.00;65435.88;4901781;29;20058;-71
2023/03/26 08:54:17;;;;;;;19.02;5.15;;;;;;;-145.50;100.00;65435.88;4907833;29;20051;-73
2023/03/26 08:56:56;;;;;;;13.85;4.88;;;;;;;-145.50;100.00;65435.88;4895935;29;20063;-70
2023/03/26 08:59:38;;;;;;;;;;;;;;;-145.50;100.00;65435.88;4903602;29;20058;-71
2023/03/26 09:02:54;;;;;;;12.40;3.50;;;;;;;-145.50;100.00;65435.88;4897075;29;20422;-72
2023/03/26 09:05:32;;;;;;;14.73;4.18;;;;;;;-145.50;100.00;65435.88;4882446;29;20063;-71
2023/03/26 09:08:36;;;;;;;14.90;3.92;;;;;;;-145.50;100.00;65435.88;4904612;29;20059;-70
2023/03/26 09:11:55;;;;;;;16.58;5.18;;;;;;;-145.50;100.00;65435.88;4914342;29;20056;-71
2023/03/26 09:14:50;;;;;;;15.88;5.03;;;;;;;-145.50;100.00;65435.88;4900046;29;20052;-69
2023/03/26 09:17:38;;;;;;;18.00;5.40;;;;;;;-145.50;100.00;65435.88;4909078;29;20081;-72
2023/03/26 09:20:51;;;;;;;20.50;5.85;;;;;;;-145.50;100.00;65435.88;4903555;29;20130;-71
2023/03/26 09:23:32;;;;;;;18.73;8.05;;;;;;;-145.50;100.00;65435.88;4909857;29;20060;-69
2023/03/26 09:26:23;;;;;;;16.45;8.40;;;;;;;-145.50;100.00;65435.88;4897932;29;20494;-70
2023/03/26 09:29:15;;;;;;;19.83;8.35;;;;;;;-145.50;100.00;65435.88;4907581;29;20067;-70
2023/03/26 09:32:02;;;;;;;19.08;7.90;;;;;;;-145.50;100.00;65435.88;4895179;29;20741;-70
2023/03/26 09:35:06;;;;;;;16.77;7.07;;;;;;;-145.50;100.00;65435.88;4907112;29;20044;-70
2023/03/26 09:37:56;;;;;;;18.58;5.47;;;;;;;-145.50;100.00;65435.88;4898404;29;20158;-70
2023/03/26 09:41:02;;;;;;;13.65;5.65;;;;;;;-145.50;100.00;65435.88;4908327;29;20051;-70
2023/03/26 09:44:00;;;;;;;19.73;5.70;;;;;;;-145.50;100.00;65435.88;4900057;29;20088;-71
2023/03/26 09:46:44;;;;;;;12.45;5.05;;;;;;;-145.50;100.00;65435.88;4909943;29;20060;-71
2023/03/26 09:49:46;;;;;;;12.02;4.18;;;;;;;-145.50;100.00;65435.88;4902927;29;20078;-70
2023/03/26 09:52:50;;;;;;;13.98;4.70;;;;;;;-145.50;100.00;65435.88;4903429;29;20725;-69
2023/03/26 09:55:37;;;;;;;15.55;4.82;;;;;;;-145.50;100.00;65435.88;4896334;29;20557;-70
2023/03/26 09:58:27;;;;;;;12.48;4.15;;;;;;;-145.50;100.00;65435.88;4909925;29;20461;-70
2023/03/26 10:01:09;;;;;;;11.40;3.20;;;;;;;-145.50;100.00;65435.88;4900457;29;20063;-70
2023/03/26 10:04:27;;;;;;;9.48;3.10;;;;;;;-145.50;100.00;65435.88;4923466;29;20104;-70
2023/03/26 10:07:05;;;;;;;11.90;2.90;;;;;;;-145.50;100.00;65435.88;4886125;29;20063;-70
2023/03/26 10:09:42;;;;;;;9.82;3.00;;;;;;;-145.50;100.00;65435.88;4909953;29;20048;-70
2023/03/26 10:12:17;;;;;;;8.07;2.50;;;;;;;-145.50;100.00;65435.88;4902279;29;20060;-71
2023/03/26 10:15:01;;;;;;;9.70;2.92;;;;;;;-145.50;100.00;65435.88;4909111;29;20124;-70
2023/03/26 10:17:37;;;;;;;10.75;3.60;;;;;;;-145.50;100.00;65435.88;4903643;29;20505;-70
2023/03/26 10:20:30;;;;;;;13.15;3.47;;;;;;;-145.50;100.00;65435.88;4902500;29;20513;-70
2023/03/26 10:23:12;;;;;;;12.35;4.20;;;;;;;-145.50;100.00;65435.88;4899631;29;20052;-70
2023/03/26 10:26:13;;;;;;;11.82;3.47;;;;;;;-145.50;100.00;65435.88;4909313;29;20139;-70
2023/03/26 10:28:58;;;;;;;11.00;3.50;;;;;;;-145.50;100.00;65435.88;4895207;29;20058;-71
2023/03/26 10:31:51;;;;;;;11.45;3.15;;;;;;;-145.50;100.00;65435.88;4908806;29;20062;-70
2023/03/26 10:34:32;;;;;;;12.57;3.30;;;;;;;-145.50;100.00;65435.88;4897735;29;20076;-70
2023/03/26 10:36:59;;;;;;;14.65;3.35;;;;;;;-145.50;100.00;65435.88;4900122;29;20067;-69
2023/03/26 10:40:06;;;;;;;8.57;3.08;;;;;;;-145.50;100.00;65435.88;4909445;29;20067;-70
2023/03/26 10:43:06;;;;;;;10.57;3.38;;;;;;;-145.50;100.00;65435.88;4907925;29;20094;-71
2023/03/26 10:46:15;;;;;;;12.70;3.35;;;;;;;-145.50;100.00;65435.88;4901392;29;20056;-68
2023/03/26 10:49:02;;;;;;;8.95;3.25;;;;;;;-145.50;100.00;65435.88;4910126;29;20713;-70
2023/03/26 10:51:35;;;;;;;8.60;2.97;;;;;;;-145.50;100.00;65435.88;4895745;29;20060;-69
2023/03/26 10:54:30;;;;;;;13.18;2.88;;;;;;;-145.50;100.00;65435.88;4908879;29;20078;-71
2023/03/26 10:56:59;;;;;;;9.65;2.33;;;;;;;-145.50;100.00;65435.88;4904026;29;20056;-71
2023/03/26 10:59:26;;;;;;;9.20;2.60;;;;;;;-145.50;100.00;65435.88;4904218;29;20052;-68
2023/03/26 11:02:19;;;;;;;11.50;3.10;;;;;;;-145.50;100.00;65435.88;4901443;29;20083;-70
2023/03/26 11:05:43;;;;;;;12.57;3.38;;;;;;;-145.50;100.00;65435.88;4899869;29;20066;-70
2023/03/26 11:08:19;;;;;;;6.88;3.00;;;;;;;-145.50;100.00;65435.88;4813609;29;20054;-70
2023/03/26 11:11:21;;;;;;;10.23;3.47;;;;;;;-145.50;100.00;65435.88;4810997;29;20124;-70
2023/03/26 11:14:19;;;;;;;10.25;3.60;;;;;;;-145.50;100.00;65435.88;4811371;29;20479;-70
2023/03/26 11:17:20;;;;;;;10.88;3.05;;;;;;;-145.50;100.00;65435.88;4799000;29;20200;-70
2023/03/26 11:20:32;;;;;;;9.95;2.85;;;;;;;-145.50;100.00;65435.88;4805870;29;20050;-71
2023/03/26 11:23:20;;;;;;;8.55;2.75;;;;;;;-145.50;100.00;65435.88;4804251;29;20115;-70
2023/03/26 11:26:14;;;;;;;8.18;3.20;;;;;;;-145.50;100.00;65435.88;4807956;29;20098;-71
2023/03/26 11:29:08;;;;;;;11.15;3.13;;;;;;;-145.50;100.00;65435.88;4793379;29;20058;-71
2023/03/26 11:32:04;;;;;;;9.43;4.18;;;;;;;-145.50;100.00;65435.88;4802602;29;20118;-71
2023/03/26 11:34:41;;;;;;;8.40;4.65;;;;;;;-145.50;100.00;65435.88;4811603;29;20054;-71
2023/03/26 11:37:22;;;;;;;9.13;4.47;;;;;;;-145.50;100.00;65435.88;4820106;29;20065;-71
2023/03/26 11:39:51;;;;;;;10.13;5.30;;;;;;;-145.50;100.00;65435.88;4809505;29;20085;-71